RYR90RC LGKR-LIME
Flight info
| Callsign | RYR90RC |
|---|---|
| Flight time | 1h 37m |
| Altitude | 38000 |
| Route | OLGAT DCT OKIMO DCT ENOXA DCT GARGA DCT ANC DCT BOA DCT OGPUD DCT BETMU DCT OSBUL |
| Aircraft | B38M/M-SDE1FGHILORVWXY/HB1 |
Departure
| Time | 2026-04-29 14:21 |
|---|---|
| Airport | Corfu Ioannis Kapodistrias International Airport (LGKR) |
Arrival
| Time | 2026-04-29 15:58 |
|---|---|
| Airport | Il Caravaggio International Airport (LIME) |
| Time | Latitude | Longitude | Altitude | Speed | Heading |
|---|---|---|---|---|---|
| 2026-04-29 14:01 | 39.60552 | 19.91386 | 21 ft | 0 kts | 79° |
| 2026-04-29 14:12 | 39.60551 | 19.91378 | 21 ft | 4 kts | 83° |
| 2026-04-29 14:13 | 39.60553 | 19.91346 | 25 ft | 4 kts | 117° |
| 2026-04-29 14:13 | 39.60569 | 19.91329 | 24 ft | 4 kts | 182° |
| 2026-04-29 14:13 | 39.60586 | 19.91341 | 23 ft | 3 kts | 254° |
| 2026-04-29 14:13 | 39.60587 | 19.91350 | 23 ft | 0 kts | 258° |
| 2026-04-29 14:16 | 39.60587 | 19.91347 | 23 ft | 1 kts | 258° |
| 2026-04-29 14:17 | 39.60585 | 19.91295 | 22 ft | 11 kts | 273° |
| 2026-04-29 14:17 | 39.60590 | 19.91224 | 21 ft | 6 kts | 274° |
| 2026-04-29 14:17 | 39.60577 | 19.91195 | 23 ft | 4 kts | 223° |
| 2026-04-29 14:17 | 39.60534 | 19.91164 | 23 ft | 13 kts | 204° |
| 2026-04-29 14:18 | 39.60417 | 19.91155 | 23 ft | 21 kts | 170° |
| 2026-04-29 14:18 | 39.60244 | 19.91199 | 25 ft | 30 kts | 168° |
| 2026-04-29 14:18 | 39.60013 | 19.91259 | 27 ft | 38 kts | 169° |
| 2026-04-29 14:18 | 39.59731 | 19.91335 | 24 ft | 44 kts | 168° |
| 2026-04-29 14:19 | 39.59423 | 19.91414 | 19 ft | 43 kts | 168° |
| 2026-04-29 14:19 | 39.59222 | 19.91468 | 20 ft | 13 kts | 157° |
| 2026-04-29 14:19 | 39.59165 | 19.91516 | 20 ft | 2 kts | 188° |
| 2026-04-29 14:19 | 39.59160 | 19.91492 | 20 ft | 6 kts | 285° |
| 2026-04-29 14:20 | 39.59182 | 19.91474 | 20 ft | 1 kts | 349° |
| 2026-04-29 14:20 | 39.59226 | 19.91464 | 20 ft | 26 kts | 349° |
| 2026-04-29 14:20 | 39.59685 | 19.91343 | 22 ft | 106 kts | 348° |
| 2026-04-29 14:20 | 39.60619 | 19.91071 | 90 ft | 160 kts | 342° |
| 2026-04-29 14:21 | 39.61743 | 19.90729 | 758 ft | 170 kts | 348° |
| 2026-04-29 14:21 | 39.62915 | 19.90449 | 1630 ft | 173 kts | 348° |
| 2026-04-29 14:21 | 39.64151 | 19.90120 | 2267 ft | 191 kts | 342° |
| 2026-04-29 14:21 | 39.65389 | 19.89286 | 2760 ft | 217 kts | 314° |
| 2026-04-29 14:22 | 39.66088 | 19.87615 | 3737 ft | 208 kts | 279° |
| 2026-04-29 14:22 | 39.66127 | 19.85730 | 4745 ft | 214 kts | 267° |
| 2026-04-29 14:22 | 39.66067 | 19.83761 | 5661 ft | 220 kts | 268° |
| 2026-04-29 14:22 | 39.66024 | 19.81761 | 6691 ft | 223 kts | 269° |
| 2026-04-29 14:23 | 39.66174 | 19.79714 | 7417 ft | 238 kts | 290° |
| 2026-04-29 14:23 | 39.67088 | 19.77836 | 8021 ft | 258 kts | 313° |
| 2026-04-29 14:23 | 39.68363 | 19.76079 | 8647 ft | 276 kts | 312° |
| 2026-04-29 14:23 | 39.69690 | 19.74247 | 9601 ft | 280 kts | 312° |
| 2026-04-29 14:24 | 39.71038 | 19.72396 | 10478 ft | 287 kts | 313° |
| 2026-04-29 14:24 | 39.72436 | 19.70487 | 10969 ft | 306 kts | 313° |
| 2026-04-29 14:24 | 39.73945 | 19.68431 | 11490 ft | 322 kts | 313° |
| 2026-04-29 14:24 | 39.75518 | 19.66291 | 12183 ft | 330 kts | 313° |
| 2026-04-29 14:25 | 39.77107 | 19.64128 | 13069 ft | 333 kts | 313° |
| 2026-04-29 14:25 | 39.78716 | 19.61934 | 13880 ft | 337 kts | 313° |
| 2026-04-29 14:25 | 39.80340 | 19.59719 | 14603 ft | 340 kts | 313° |
| 2026-04-29 14:25 | 39.81983 | 19.57477 | 15321 ft | 343 kts | 312° |
| 2026-04-29 14:26 | 39.83629 | 19.55229 | 16034 ft | 346 kts | 312° |
| 2026-04-29 14:26 | 39.85286 | 19.52979 | 16701 ft | 350 kts | 313° |
| 2026-04-29 14:26 | 39.86987 | 19.50704 | 17390 ft | 352 kts | 313° |
| 2026-04-29 14:26 | 39.88702 | 19.48405 | 18054 ft | 356 kts | 312° |
| 2026-04-29 14:27 | 39.90430 | 19.46085 | 18649 ft | 359 kts | 312° |
| 2026-04-29 14:27 | 39.92175 | 19.43740 | 19221 ft | 361 kts | 312° |
| 2026-04-29 14:27 | 39.93930 | 19.41379 | 19768 ft | 364 kts | 312° |
| 2026-04-29 14:28 | 39.97466 | 19.36618 | 20862 ft | 369 kts | 312° |
| 2026-04-29 14:28 | 39.99266 | 19.34192 | 21401 ft | 372 kts | 312° |
| 2026-04-29 14:28 | 40.01044 | 19.31792 | 21944 ft | 375 kts | 312° |
| 2026-04-29 14:28 | 40.02863 | 19.29336 | 22468 ft | 378 kts | 312° |
| 2026-04-29 14:29 | 40.04693 | 19.26863 | 22997 ft | 381 kts | 312° |
| 2026-04-29 14:29 | 40.06539 | 19.24366 | 23531 ft | 383 kts | 312° |
| 2026-04-29 14:29 | 40.08400 | 19.21847 | 23998 ft | 386 kts | 312° |
| 2026-04-29 14:29 | 40.10268 | 19.19316 | 24448 ft | 388 kts | 312° |
| 2026-04-29 14:30 | 40.12144 | 19.16772 | 24901 ft | 391 kts | 312° |
| 2026-04-29 14:30 | 40.14041 | 19.14196 | 25343 ft | 393 kts | 312° |
| 2026-04-29 14:30 | 40.15939 | 19.11618 | 25774 ft | 396 kts | 312° |
| 2026-04-29 14:30 | 40.17830 | 19.09047 | 26201 ft | 398 kts | 312° |
| 2026-04-29 14:31 | 40.19750 | 19.06435 | 26625 ft | 400 kts | 312° |
| 2026-04-29 14:31 | 40.21685 | 19.03801 | 27046 ft | 403 kts | 312° |
| 2026-04-29 14:31 | 40.23629 | 19.01151 | 27460 ft | 405 kts | 312° |
| 2026-04-29 14:31 | 40.25589 | 18.98483 | 27876 ft | 407 kts | 312° |
| 2026-04-29 14:32 | 40.27560 | 18.95799 | 28263 ft | 409 kts | 312° |
| 2026-04-29 14:32 | 40.29539 | 18.93103 | 28659 ft | 412 kts | 312° |
| 2026-04-29 14:32 | 40.31528 | 18.90390 | 29043 ft | 414 kts | 312° |
| 2026-04-29 14:32 | 40.33527 | 18.87660 | 29421 ft | 416 kts | 312° |
| 2026-04-29 14:33 | 40.35535 | 18.84916 | 29787 ft | 419 kts | 312° |
| 2026-04-29 14:33 | 40.37529 | 18.82189 | 30137 ft | 421 kts | 312° |
| 2026-04-29 14:33 | 40.39558 | 18.79412 | 30442 ft | 423 kts | 312° |
| 2026-04-29 14:33 | 40.41593 | 18.76622 | 30721 ft | 425 kts | 312° |
| 2026-04-29 14:34 | 40.43647 | 18.73805 | 31030 ft | 427 kts | 312° |
| 2026-04-29 14:34 | 40.45704 | 18.70980 | 31323 ft | 429 kts | 312° |
| 2026-04-29 14:34 | 40.47772 | 18.68139 | 31617 ft | 431 kts | 312° |
| 2026-04-29 14:34 | 40.49844 | 18.65289 | 31908 ft | 433 kts | 312° |
| 2026-04-29 14:35 | 40.51926 | 18.62421 | 32187 ft | 435 kts | 312° |
| 2026-04-29 14:35 | 40.54021 | 18.59534 | 32536 ft | 435 kts | 312° |
| 2026-04-29 14:35 | 40.56107 | 18.56656 | 32942 ft | 434 kts | 312° |
| 2026-04-29 14:35 | 40.58159 | 18.53824 | 33336 ft | 433 kts | 312° |
| 2026-04-29 14:36 | 40.60234 | 18.50955 | 33739 ft | 432 kts | 311° |
| 2026-04-29 14:36 | 40.62302 | 18.48093 | 34115 ft | 432 kts | 311° |
| 2026-04-29 14:36 | 40.64371 | 18.45229 | 34446 ft | 431 kts | 311° |
| 2026-04-29 14:36 | 40.66433 | 18.42371 | 34769 ft | 430 kts | 311° |
| 2026-04-29 14:37 | 40.68460 | 18.39558 | 35095 ft | 429 kts | 311° |
| 2026-04-29 14:37 | 40.70539 | 18.36670 | 35401 ft | 428 kts | 311° |
| 2026-04-29 14:37 | 40.72583 | 18.33829 | 35704 ft | 427 kts | 311° |
| 2026-04-29 14:37 | 40.74628 | 18.30983 | 36010 ft | 426 kts | 311° |
| 2026-04-29 14:38 | 40.76631 | 18.28193 | 36297 ft | 426 kts | 311° |
| 2026-04-29 14:38 | 40.78668 | 18.25354 | 36589 ft | 425 kts | 311° |
| 2026-04-29 14:38 | 40.80704 | 18.22513 | 36860 ft | 424 kts | 311° |
| 2026-04-29 14:38 | 40.82726 | 18.19688 | 37128 ft | 423 kts | 311° |
| 2026-04-29 14:39 | 40.84744 | 18.16866 | 37400 ft | 423 kts | 311° |
| 2026-04-29 14:39 | 40.86761 | 18.14044 | 37665 ft | 422 kts | 311° |
| 2026-04-29 14:39 | 40.88777 | 18.11223 | 37906 ft | 421 kts | 311° |
| 2026-04-29 14:39 | 40.90782 | 18.08412 | 38038 ft | 422 kts | 311° |
| 2026-04-29 14:40 | 40.92766 | 18.05628 | 38017 ft | 420 kts | 311° |
| 2026-04-29 14:40 | 40.96751 | 18.00016 | 38021 ft | 419 kts | 310° |
| 2026-04-29 14:41 | 41.00747 | 17.94383 | 38017 ft | 419 kts | 310° |
| 2026-04-29 14:41 | 41.04730 | 17.88756 | 38012 ft | 419 kts | 310° |
| 2026-04-29 14:42 | 41.08705 | 17.83131 | 38008 ft | 419 kts | 310° |
| 2026-04-29 14:42 | 41.12655 | 17.77530 | 38005 ft | 418 kts | 310° |
| 2026-04-29 14:43 | 41.16626 | 17.71889 | 38004 ft | 418 kts | 310° |
| 2026-04-29 14:43 | 41.20591 | 17.66253 | 38005 ft | 417 kts | 310° |
| 2026-04-29 14:44 | 41.24553 | 17.60623 | 38001 ft | 417 kts | 310° |
| 2026-04-29 14:44 | 41.28519 | 17.54975 | 38002 ft | 417 kts | 310° |
| 2026-04-29 14:45 | 41.32454 | 17.49362 | 38004 ft | 417 kts | 310° |
| 2026-04-29 14:45 | 41.36405 | 17.43716 | 38001 ft | 417 kts | 310° |
| 2026-04-29 14:46 | 41.40356 | 17.38057 | 38003 ft | 417 kts | 310° |
| 2026-04-29 14:46 | 41.44302 | 17.32396 | 38002 ft | 417 kts | 310° |
| 2026-04-29 14:47 | 41.48238 | 17.26738 | 38008 ft | 416 kts | 310° |
| 2026-04-29 14:47 | 41.52144 | 17.21112 | 38006 ft | 416 kts | 310° |
| 2026-04-29 14:48 | 41.56074 | 17.15441 | 38008 ft | 416 kts | 310° |
| 2026-04-29 14:48 | 41.60004 | 17.09760 | 38009 ft | 416 kts | 310° |
| 2026-04-29 14:49 | 41.63926 | 17.04078 | 38008 ft | 416 kts | 310° |
| 2026-04-29 14:49 | 41.67846 | 16.98388 | 38010 ft | 416 kts | 310° |
| 2026-04-29 14:50 | 41.71729 | 16.92742 | 38010 ft | 415 kts | 310° |
| 2026-04-29 14:50 | 41.75637 | 16.87048 | 38010 ft | 415 kts | 310° |
| 2026-04-29 14:51 | 41.79542 | 16.81348 | 38009 ft | 415 kts | 310° |
| 2026-04-29 14:51 | 41.83448 | 16.75634 | 38006 ft | 415 kts | 309° |
| 2026-04-29 14:52 | 41.87312 | 16.69972 | 38003 ft | 415 kts | 309° |
| 2026-04-29 14:52 | 41.91210 | 16.64247 | 38005 ft | 415 kts | 309° |
| 2026-04-29 14:53 | 41.95099 | 16.58527 | 38002 ft | 415 kts | 309° |
| 2026-04-29 14:53 | 41.98991 | 16.52791 | 38004 ft | 415 kts | 309° |
| 2026-04-29 14:54 | 42.02845 | 16.47097 | 38004 ft | 414 kts | 309° |
| 2026-04-29 14:54 | 42.06721 | 16.41362 | 38001 ft | 414 kts | 309° |
| 2026-04-29 14:55 | 42.10591 | 16.35623 | 38004 ft | 414 kts | 309° |
| 2026-04-29 14:55 | 42.14466 | 16.29867 | 38006 ft | 414 kts | 309° |
| 2026-04-29 14:56 | 42.18307 | 16.24151 | 38003 ft | 414 kts | 309° |
| 2026-04-29 14:56 | 42.22171 | 16.18391 | 38001 ft | 414 kts | 309° |
| 2026-04-29 14:57 | 42.26028 | 16.12626 | 38001 ft | 413 kts | 308° |
| 2026-04-29 14:57 | 42.29406 | 16.06388 | 38006 ft | 411 kts | 303° |
| 2026-04-29 14:58 | 42.32700 | 16.00071 | 38001 ft | 411 kts | 303° |
| 2026-04-29 14:58 | 42.35963 | 15.93780 | 38003 ft | 411 kts | 303° |
| 2026-04-29 14:59 | 42.39239 | 15.87451 | 38002 ft | 411 kts | 303° |
| 2026-04-29 14:59 | 42.42517 | 15.81107 | 38000 ft | 411 kts | 303° |
| 2026-04-29 15:00 | 42.45789 | 15.74760 | 37999 ft | 411 kts | 303° |
| 2026-04-29 15:00 | 42.49042 | 15.68436 | 38000 ft | 411 kts | 302° |
| 2026-04-29 15:01 | 42.52306 | 15.62076 | 38003 ft | 412 kts | 302° |
| 2026-04-29 15:01 | 42.55575 | 15.55694 | 38002 ft | 412 kts | 302° |
| 2026-04-29 15:02 | 42.58839 | 15.49309 | 38001 ft | 412 kts | 302° |
| 2026-04-29 15:02 | 42.62074 | 15.42967 | 38001 ft | 412 kts | 302° |
| 2026-04-29 15:03 | 42.65333 | 15.36562 | 38006 ft | 412 kts | 302° |
| 2026-04-29 15:03 | 42.68587 | 15.30155 | 38004 ft | 412 kts | 302° |
| 2026-04-29 15:04 | 42.71836 | 15.23746 | 38007 ft | 412 kts | 302° |
| 2026-04-29 15:04 | 42.75061 | 15.17367 | 38010 ft | 412 kts | 302° |
| 2026-04-29 15:05 | 42.78302 | 15.10944 | 38010 ft | 412 kts | 302° |
| 2026-04-29 15:05 | 42.81539 | 15.04517 | 38012 ft | 412 kts | 302° |
| 2026-04-29 15:06 | 42.84774 | 14.98077 | 38007 ft | 412 kts | 302° |
| 2026-04-29 15:06 | 42.88006 | 14.91631 | 38013 ft | 412 kts | 302° |
| 2026-04-29 15:07 | 42.91212 | 14.85223 | 38010 ft | 412 kts | 302° |
| 2026-04-29 15:07 | 42.94436 | 14.78764 | 38011 ft | 412 kts | 302° |
| 2026-04-29 15:08 | 42.97663 | 14.72285 | 38011 ft | 412 kts | 302° |
| 2026-04-29 15:08 | 43.00881 | 14.65811 | 38013 ft | 412 kts | 302° |
| 2026-04-29 15:09 | 43.04103 | 14.59315 | 38009 ft | 413 kts | 302° |
| 2026-04-29 15:09 | 43.07297 | 14.52860 | 38015 ft | 413 kts | 302° |
| 2026-04-29 15:10 | 43.10508 | 14.46355 | 38015 ft | 413 kts | 302° |
| 2026-04-29 15:10 | 43.13720 | 14.39837 | 38016 ft | 413 kts | 302° |
| 2026-04-29 15:11 | 43.16926 | 14.33315 | 38017 ft | 413 kts | 302° |
| 2026-04-29 15:11 | 43.20105 | 14.26833 | 38015 ft | 413 kts | 302° |
| 2026-04-29 15:12 | 43.23307 | 14.20293 | 38023 ft | 413 kts | 302° |
| 2026-04-29 15:12 | 43.26503 | 14.13748 | 38019 ft | 413 kts | 301° |
| 2026-04-29 15:13 | 43.29695 | 14.07196 | 38021 ft | 413 kts | 301° |
| 2026-04-29 15:13 | 43.32865 | 14.00678 | 38021 ft | 413 kts | 301° |
| 2026-04-29 15:14 | 43.36052 | 13.94107 | 38019 ft | 413 kts | 301° |
| 2026-04-29 15:14 | 43.39236 | 13.87528 | 38020 ft | 413 kts | 301° |
| 2026-04-29 15:15 | 43.42417 | 13.80943 | 38020 ft | 413 kts | 301° |
| 2026-04-29 15:15 | 43.45569 | 13.74403 | 38025 ft | 413 kts | 301° |
| 2026-04-29 15:16 | 43.48742 | 13.67806 | 38030 ft | 413 kts | 301° |
| 2026-04-29 15:16 | 43.51913 | 13.61201 | 38037 ft | 413 kts | 301° |
| 2026-04-29 15:17 | 43.55080 | 13.54591 | 38046 ft | 413 kts | 301° |
| 2026-04-29 15:17 | 43.58233 | 13.47979 | 38045 ft | 412 kts | 300° |
| 2026-04-29 15:18 | 43.61235 | 13.41296 | 38047 ft | 412 kts | 300° |
| 2026-04-29 15:18 | 43.64268 | 13.34571 | 38048 ft | 412 kts | 300° |
| 2026-04-29 15:19 | 43.67293 | 13.27852 | 38047 ft | 412 kts | 300° |
| 2026-04-29 15:19 | 43.70317 | 13.21121 | 38047 ft | 412 kts | 300° |
| 2026-04-29 15:20 | 43.73319 | 13.14425 | 38046 ft | 412 kts | 300° |
| 2026-04-29 15:20 | 43.76334 | 13.07682 | 38043 ft | 412 kts | 300° |
| 2026-04-29 15:21 | 43.79347 | 13.00931 | 38034 ft | 412 kts | 300° |
| 2026-04-29 15:21 | 43.82354 | 12.94177 | 38035 ft | 412 kts | 300° |
| 2026-04-29 15:22 | 43.85334 | 12.87466 | 38031 ft | 412 kts | 300° |
| 2026-04-29 15:22 | 43.88333 | 12.80698 | 38030 ft | 412 kts | 300° |
| 2026-04-29 15:23 | 43.91329 | 12.73922 | 38040 ft | 412 kts | 300° |
| 2026-04-29 15:23 | 43.94301 | 12.67180 | 38044 ft | 412 kts | 300° |
| 2026-04-29 15:24 | 43.97287 | 12.60397 | 38052 ft | 412 kts | 300° |
| 2026-04-29 15:24 | 44.00275 | 12.53589 | 38058 ft | 412 kts | 300° |
| 2026-04-29 15:25 | 44.03254 | 12.46785 | 38059 ft | 412 kts | 300° |
| 2026-04-29 15:25 | 44.06210 | 12.40021 | 38058 ft | 412 kts | 300° |
| 2026-04-29 15:26 | 44.09184 | 12.33197 | 38080 ft | 412 kts | 300° |
| 2026-04-29 15:26 | 44.12154 | 12.26367 | 38087 ft | 413 kts | 300° |
| 2026-04-29 15:27 | 44.15116 | 12.19538 | 38044 ft | 413 kts | 300° |
| 2026-04-29 15:27 | 44.18082 | 12.12686 | 38043 ft | 413 kts | 300° |
| 2026-04-29 15:28 | 44.21022 | 12.05875 | 38042 ft | 413 kts | 300° |
| 2026-04-29 15:28 | 44.23981 | 11.99007 | 38051 ft | 413 kts | 300° |
| 2026-04-29 15:29 | 44.26934 | 11.92132 | 38058 ft | 413 kts | 300° |
| 2026-04-29 15:30 | 44.32811 | 11.78407 | 38089 ft | 413 kts | 300° |
| 2026-04-29 15:30 | 44.35754 | 11.71507 | 38096 ft | 414 kts | 300° |
| 2026-04-29 15:31 | 44.38697 | 11.64593 | 38019 ft | 412 kts | 300° |
| 2026-04-29 15:31 | 44.40153 | 11.61164 | 37335 ft | 409 kts | 300° |
| 2026-04-29 15:31 | 44.41591 | 11.57777 | 36991 ft | 401 kts | 300° |
| 2026-04-29 15:31 | 44.42996 | 11.54459 | 36711 ft | 391 kts | 300° |
| 2026-04-29 15:32 | 44.44364 | 11.51230 | 36206 ft | 394 kts | 300° |
| 2026-04-29 15:32 | 44.45763 | 11.47922 | 35654 ft | 397 kts | 300° |
| 2026-04-29 15:32 | 44.47169 | 11.44596 | 35121 ft | 397 kts | 300° |
| 2026-04-29 15:32 | 44.48576 | 11.41264 | 34629 ft | 395 kts | 300° |
| 2026-04-29 15:33 | 44.49963 | 11.37973 | 34147 ft | 392 kts | 300° |
| 2026-04-29 15:33 | 44.51342 | 11.34701 | 33600 ft | 389 kts | 300° |
| 2026-04-29 15:33 | 44.52715 | 11.31436 | 33083 ft | 386 kts | 300° |
| 2026-04-29 15:33 | 44.53985 | 11.28125 | 32562 ft | 387 kts | 292° |
| 2026-04-29 15:34 | 44.54995 | 11.24622 | 32089 ft | 389 kts | 292° |
| 2026-04-29 15:34 | 44.56015 | 11.21155 | 31659 ft | 391 kts | 292° |
| 2026-04-29 15:34 | 44.57049 | 11.17617 | 31193 ft | 393 kts | 292° |
| 2026-04-29 15:34 | 44.58087 | 11.14060 | 30726 ft | 394 kts | 292° |
| 2026-04-29 15:35 | 44.59125 | 11.10492 | 30279 ft | 396 kts | 292° |
| 2026-04-29 15:35 | 44.60168 | 11.06905 | 29744 ft | 398 kts | 292° |
| 2026-04-29 15:35 | 44.61215 | 11.03297 | 29258 ft | 399 kts | 292° |
| 2026-04-29 15:35 | 44.62259 | 10.99681 | 28757 ft | 401 kts | 292° |
| 2026-04-29 15:36 | 44.63306 | 10.96047 | 28343 ft | 403 kts | 292° |
| 2026-04-29 15:36 | 44.64358 | 10.92392 | 27920 ft | 404 kts | 292° |
| 2026-04-29 15:36 | 44.65397 | 10.88779 | 27486 ft | 406 kts | 292° |
| 2026-04-29 15:36 | 44.66452 | 10.85103 | 27037 ft | 407 kts | 292° |
| 2026-04-29 15:37 | 44.67511 | 10.81402 | 26541 ft | 408 kts | 292° |
| 2026-04-29 15:37 | 44.68568 | 10.77698 | 26059 ft | 410 kts | 292° |
| 2026-04-29 15:37 | 44.69632 | 10.73965 | 25625 ft | 411 kts | 292° |
| 2026-04-29 15:37 | 44.70689 | 10.70246 | 25186 ft | 409 kts | 292° |
| 2026-04-29 15:38 | 44.71742 | 10.66540 | 24741 ft | 407 kts | 292° |
| 2026-04-29 15:38 | 44.72787 | 10.62852 | 24312 ft | 406 kts | 292° |
| 2026-04-29 15:38 | 44.73829 | 10.59173 | 23882 ft | 404 kts | 292° |
| 2026-04-29 15:38 | 44.74851 | 10.55562 | 23400 ft | 402 kts | 292° |
| 2026-04-29 15:39 | 44.75881 | 10.51913 | 22938 ft | 400 kts | 292° |
| 2026-04-29 15:39 | 44.76901 | 10.48294 | 22511 ft | 398 kts | 292° |
| 2026-04-29 15:39 | 44.77916 | 10.44690 | 22098 ft | 396 kts | 291° |
| 2026-04-29 15:39 | 44.78927 | 10.41093 | 21678 ft | 393 kts | 292° |
| 2026-04-29 15:40 | 44.79930 | 10.37518 | 21278 ft | 391 kts | 291° |
| 2026-04-29 15:40 | 44.80928 | 10.33962 | 20875 ft | 389 kts | 291° |
| 2026-04-29 15:40 | 44.82001 | 10.30485 | 20560 ft | 388 kts | 301° |
| 2026-04-29 15:40 | 44.83743 | 10.27696 | 20129 ft | 386 kts | 322° |
| 2026-04-29 15:41 | 44.85962 | 10.25572 | 19765 ft | 385 kts | 322° |
| 2026-04-29 15:41 | 44.88072 | 10.23287 | 19390 ft | 384 kts | 321° |
| 2026-04-29 15:41 | 44.90211 | 10.21004 | 19007 ft | 382 kts | 322° |
| 2026-04-29 15:41 | 44.92333 | 10.18762 | 18625 ft | 380 kts | 322° |
| 2026-04-29 15:42 | 44.94451 | 10.16536 | 18231 ft | 379 kts | 322° |
| 2026-04-29 15:42 | 44.96557 | 10.14326 | 17806 ft | 377 kts | 322° |
| 2026-04-29 15:42 | 44.98656 | 10.12124 | 17408 ft | 374 kts | 322° |
| 2026-04-29 15:42 | 45.00711 | 10.09967 | 17035 ft | 373 kts | 322° |
| 2026-04-29 15:43 | 45.02787 | 10.07785 | 16653 ft | 370 kts | 322° |
| 2026-04-29 15:43 | 45.04841 | 10.05624 | 16265 ft | 368 kts | 322° |
| 2026-04-29 15:43 | 45.06889 | 10.03469 | 15889 ft | 366 kts | 322° |
| 2026-04-29 15:43 | 45.08922 | 10.01328 | 15514 ft | 364 kts | 322° |
| 2026-04-29 15:44 | 45.10947 | 9.99192 | 15141 ft | 362 kts | 322° |
| 2026-04-29 15:44 | 45.12958 | 9.97069 | 14768 ft | 360 kts | 322° |
| 2026-04-29 15:44 | 45.14963 | 9.94950 | 14402 ft | 359 kts | 322° |
| 2026-04-29 15:44 | 45.16961 | 9.92846 | 13990 ft | 357 kts | 322° |
| 2026-04-29 15:45 | 45.18917 | 9.90788 | 13579 ft | 355 kts | 322° |
| 2026-04-29 15:45 | 45.21050 | 9.89064 | 13201 ft | 354 kts | 338° |
| 2026-04-29 15:45 | 45.23382 | 9.87945 | 12861 ft | 353 kts | 340° |
| 2026-04-29 15:45 | 45.25714 | 9.86860 | 12494 ft | 352 kts | 341° |
| 2026-04-29 15:46 | 45.28033 | 9.85800 | 12132 ft | 351 kts | 341° |
| 2026-04-29 15:46 | 45.30365 | 9.84747 | 11761 ft | 349 kts | 341° |
| 2026-04-29 15:46 | 45.32669 | 9.83713 | 11412 ft | 348 kts | 341° |
| 2026-04-29 15:46 | 45.34981 | 9.82678 | 11039 ft | 346 kts | 341° |
| 2026-04-29 15:47 | 45.37266 | 9.81655 | 10679 ft | 342 kts | 341° |
| 2026-04-29 15:47 | 45.39457 | 9.80543 | 10320 ft | 337 kts | 330° |
| 2026-04-29 15:47 | 45.41276 | 9.78550 | 10126 ft | 324 kts | 318° |
| 2026-04-29 15:47 | 45.42952 | 9.76514 | 9961 ft | 311 kts | 319° |
| 2026-04-29 15:48 | 45.44589 | 9.74544 | 9603 ft | 305 kts | 319° |
| 2026-04-29 15:48 | 45.46194 | 9.72617 | 9212 ft | 299 kts | 319° |
| 2026-04-29 15:48 | 45.47770 | 9.70724 | 8873 ft | 292 kts | 319° |
| 2026-04-29 15:48 | 45.49268 | 9.68924 | 8574 ft | 286 kts | 319° |
| 2026-04-29 15:49 | 45.50796 | 9.67086 | 8275 ft | 285 kts | 319° |
| 2026-04-29 15:49 | 45.52305 | 9.65270 | 7975 ft | 284 kts | 319° |
| 2026-04-29 15:49 | 45.53809 | 9.63459 | 7762 ft | 281 kts | 319° |
| 2026-04-29 15:49 | 45.55299 | 9.61664 | 7619 ft | 280 kts | 319° |
| 2026-04-29 15:50 | 45.56779 | 9.59880 | 7476 ft | 276 kts | 319° |
| 2026-04-29 15:50 | 45.58225 | 9.58134 | 7327 ft | 269 kts | 319° |
| 2026-04-29 15:50 | 45.59631 | 9.56436 | 7183 ft | 261 kts | 319° |
| 2026-04-29 15:50 | 45.60920 | 9.54677 | 6985 ft | 256 kts | 304° |
| 2026-04-29 15:51 | 45.61575 | 9.52338 | 6660 ft | 254 kts | 283° |
| 2026-04-29 15:51 | 45.61998 | 9.49970 | 6348 ft | 246 kts | 284° |
| 2026-04-29 15:51 | 45.62426 | 9.47635 | 6026 ft | 239 kts | 284° |
| 2026-04-29 15:51 | 45.62840 | 9.45382 | 5741 ft | 230 kts | 284° |
| 2026-04-29 15:52 | 45.63505 | 9.43365 | 5416 ft | 226 kts | 311° |
| 2026-04-29 15:52 | 45.64790 | 9.42192 | 5109 ft | 218 kts | 344° |
| 2026-04-29 15:52 | 45.66272 | 9.42123 | 4842 ft | 210 kts | 11° |
| 2026-04-29 15:52 | 45.67676 | 9.42574 | 4573 ft | 204 kts | 14° |
| 2026-04-29 15:53 | 45.69060 | 9.43056 | 4108 ft | 204 kts | 17° |
| 2026-04-29 15:53 | 45.70247 | 9.44018 | 3734 ft | 195 kts | 50° |
| 2026-04-29 15:53 | 45.70844 | 9.45651 | 3522 ft | 180 kts | 80° |
| 2026-04-29 15:53 | 45.70830 | 9.47408 | 3456 ft | 178 kts | 102° |
| 2026-04-29 15:54 | 45.70590 | 9.49177 | 3509 ft | 183 kts | 102° |
| 2026-04-29 15:54 | 45.70319 | 9.50962 | 3516 ft | 184 kts | 104° |
| 2026-04-29 15:54 | 45.70029 | 9.52741 | 3511 ft | 184 kts | 104° |
| 2026-04-29 15:54 | 45.69725 | 9.54524 | 3363 ft | 184 kts | 105° |
| 2026-04-29 15:55 | 45.69431 | 9.56218 | 3132 ft | 167 kts | 105° |
| 2026-04-29 15:55 | 45.69163 | 9.57801 | 2914 ft | 162 kts | 104° |
| 2026-04-29 15:55 | 45.68887 | 9.59333 | 2655 ft | 160 kts | 105° |
| 2026-04-29 15:55 | 45.68613 | 9.60822 | 2368 ft | 151 kts | 105° |
| 2026-04-29 15:56 | 45.68337 | 9.62255 | 2007 ft | 148 kts | 105° |
| 2026-04-29 15:56 | 45.68075 | 9.63659 | 1655 ft | 144 kts | 104° |
| 2026-04-29 15:56 | 45.67825 | 9.65042 | 1412 ft | 144 kts | 104° |
| 2026-04-29 15:56 | 45.67577 | 9.66419 | 1229 ft | 143 kts | 105° |
| 2026-04-29 15:57 | 45.67323 | 9.67795 | 1029 ft | 143 kts | 104° |
| 2026-04-29 15:57 | 45.67068 | 9.69166 | 838 ft | 142 kts | 105° |
| 2026-04-29 15:57 | 45.66836 | 9.70415 | 790 ft | 105 kts | 105° |
| 2026-04-29 15:57 | 45.66700 | 9.71136 | 790 ft | 64 kts | 105° |
| 2026-04-29 15:58 | 45.66592 | 9.71721 | 790 ft | 39 kts | 105° |
| 2026-04-29 15:58 | 45.66526 | 9.71909 | 790 ft | 15 kts | 168° |
| 2026-04-29 15:58 | 45.66484 | 9.71873 | 790 ft | 6 kts | 250° |
| 2026-04-29 15:58 | 45.66464 | 9.71764 | 790 ft | 17 kts | 256° |
| 2026-04-29 15:59 | 45.66436 | 9.71558 | 790 ft | 23 kts | 274° |
| 2026-04-29 15:59 | 45.66484 | 9.71331 | 790 ft | 21 kts | 284° |
| 2026-04-29 15:59 | 45.66525 | 9.71120 | 790 ft | 23 kts | 295° |
| 2026-04-29 15:59 | 45.66576 | 9.70903 | 790 ft | 24 kts | 285° |
| 2026-04-29 16:00 | 45.66618 | 9.70679 | 790 ft | 23 kts | 284° |
| 2026-04-29 16:00 | 45.66657 | 9.70459 | 790 ft | 23 kts | 284° |
| 2026-04-29 16:00 | 45.66695 | 9.70253 | 790 ft | 21 kts | 285° |
| 2026-04-29 16:00 | 45.66734 | 9.70044 | 790 ft | 23 kts | 284° |
| 2026-04-29 16:01 | 45.66774 | 9.69832 | 790 ft | 21 kts | 285° |
| 2026-04-29 16:01 | 45.66812 | 9.69624 | 790 ft | 22 kts | 285° |
| 2026-04-29 16:01 | 45.66850 | 9.69421 | 790 ft | 13 kts | 285° |
| 2026-04-29 16:01 | 45.66847 | 9.69371 | 790 ft | 2 kts | 213° |
| 2026-04-29 16:02 | 45.66796 | 9.69349 | 790 ft | 6 kts | 195° |
| 2026-04-29 16:02 | 45.66776 | 9.69342 | 790 ft | 0 kts | 195° |